sensor_id;sensor_type;location;lat;lon;timestamp;pressure;altitude;pressure_sealevel;temperature;humidity
35647;BME280;28680;45.642;13.756;2023-03-21T00:01:57;101597.84;;;10.17;100.00
35647;BME280;28680;45.642;13.756;2023-03-21T00:04:25;101590.72;;;10.19;100.00
35647;BME280;28680;45.642;13.756;2023-03-21T00:06:52;101581.28;;;10.16;100.00
35647;BME280;28680;45.642;13.756;2023-03-21T00:09:19;101584.81;;;10.15;100.00
35647;BME280;28680;45.642;13.756;2023-03-21T00:11:45;101576.03;;;10.16;100.00
35647;BME280;28680;45.642;13.756;2023-03-21T00:14:11;101575.38;;;10.12;100.00
35647;BME280;28680;45.642;13.756;2023-03-21T00:16:43;101574.72;;;10.09;100.00
35647;BME280;28680;45.642;13.756;2023-03-21T00:19:10;101575.38;;;10.12;100.00
35647;BME280;28680;45.642;13.756;2023-03-21T00:21:37;101569.38;;;10.10;100.00
35647;BME280;28680;45.642;13.756;2023-03-21T00:24:04;101559.84;;;10.09;100.00
35647;BME280;28680;45.642;13.756;2023-03-21T00:26:31;101558.34;;;10.05;100.00
35647;BME280;28680;45.642;13.756;2023-03-21T00:28:57;101558.16;;;9.94;100.00
35647;BME280;28680;45.642;13.756;2023-03-21T00:31:23;101552.91;;;9.94;100.00
35647;BME280;28680;45.642;13.756;2023-03-21T00:33:49;101558.56;;;9.88;100.00
35647;BME280;28680;45.642;13.756;2023-03-21T00:36:15;101553.03;;;9.78;100.00
35647;BME280;28680;45.642;13.756;2023-03-21T00:38:41;101542.72;;;9.89;100.00
35647;BME280;28680;45.642;13.756;2023-03-21T00:41:09;101543.22;;;9.82;100.00
35647;BME280;28680;45.642;13.756;2023-03-21T00:43:36;101546.41;;;9.72;100.00
35647;BME280;28680;45.642;13.756;2023-03-21T00:46:03;101540.78;;;9.64;100.00
35647;BME280;28680;45.642;13.756;2023-03-21T00:48:29;101542.47;;;9.65;100.00
35647;BME280;28680;45.642;13.756;2023-03-21T00:50:57;101534.41;;;9.68;100.00
35647;BME280;28680;45.642;13.756;2023-03-21T00:53:26;101530.66;;;9.72;100.00
35647;BME280;28680;45.642;13.756;2023-03-21T00:55:52;101528.50;;;9.79;100.00
35647;BME280;28680;45.642;13.756;2023-03-21T00:58:18;101526.56;;;9.68;100.00
35647;BME280;28680;45.642;13.756;2023-03-21T01:00:44;101519.81;;;9.64;100.00
35647;BME280;28680;45.642;13.756;2023-03-21T01:03:14;101513.06;;;9.60;100.00
35647;BME280;28680;45.642;13.756;2023-03-21T01:05:44;101518.88;;;9.65;100.00
35647;BME280;28680;45.642;13.756;2023-03-21T01:08:30;101513.28;;;9.57;100.00
35647;BME280;28680;45.642;13.756;2023-03-21T01:11:03;101521.31;;;9.54;100.00
35647;BME280;28680;45.642;13.756;2023-03-21T01:13:29;101516.91;;;9.54;100.00
35647;BME280;28680;45.642;13.756;2023-03-21T01:15:56;101513.75;;;9.49;100.00
35647;BME280;28680;45.642;13.756;2023-03-21T01:18:26;101511.47;;;9.43;100.00
35647;BME280;28680;45.642;13.756;2023-03-21T01:20:55;101514.66;;;9.48;100.00
35647;BME280;28680;45.642;13.756;2023-03-21T01:23:25;101505.88;;;9.49;100.00
35647;BME280;28680;45.642;13.756;2023-03-21T01:25:57;101502.31;;;9.50;100.00
35647;BME280;28680;45.642;13.756;2023-03-21T01:28:26;101503.81;;;9.54;100.00
35647;BME280;28680;45.642;13.756;2023-03-21T01:30:53;101516.16;;;9.52;100.00
35647;BME280;28680;45.642;13.756;2023-03-21T01:33:20;101514.00;;;9.45;100.00
35647;BME280;28680;45.642;13.756;2023-03-21T01:35:47;101505.50;;;9.41;100.00
35647;BME280;28680;45.642;13.756;2023-03-21T01:38:13;101502.13;;;9.39;100.00
35647;BME280;28680;45.642;13.756;2023-03-21T01:40:40;101495.97;;;9.40;100.00
35647;BME280;28680;45.642;13.756;2023-03-21T01:43:27;101492.50;;;9.40;100.00
35647;BME280;28680;45.642;13.756;2023-03-21T01:49:27;101489.97;;;9.38;100.00
35647;BME280;28680;45.642;13.756;2023-03-21T01:52:06;101489.59;;;9.44;100.00
35647;BME280;28680;45.642;13.756;2023-03-21T01:54:36;101486.06;;;9.45;100.00
35647;BME280;28680;45.642;13.756;2023-03-21T01:57:20;101467.50;;;9.48;100.00
35647;BME280;28680;45.642;13.756;2023-03-21T01:59:49;101472.75;;;9.48;100.00
35647;BME280;28680;45.642;13.756;2023-03-21T02:02:24;101464.22;;;9.45;100.00
35647;BME280;28680;45.642;13.756;2023-03-21T02:04:51;101464.88;;;9.48;100.00
35647;BME280;28680;45.642;13.756;2023-03-21T02:07:29;101458.72;;;9.49;100.00
35647;BME280;28680;45.642;13.756;2023-03-21T02:09:57;101453.47;;;9.49;100.00
35647;BME280;28680;45.642;13.756;2023-03-21T02:12:25;101453.56;;;9.48;100.00
35647;BME280;28680;45.642;13.756;2023-03-21T02:14:52;101451.78;;;9.48;100.00
35647;BME280;28680;45.642;13.756;2023-03-21T02:17:42;101456.28;;;9.46;100.00
35647;BME280;28680;45.642;13.756;2023-03-21T02:23:13;101454.13;;;9.39;100.00
35647;BME280;28680;45.642;13.756;2023-03-21T02:30:10;101462.47;;;9.16;100.00
35647;BME280;28680;45.642;13.756;2023-03-21T02:36:14;101458.81;;;9.05;100.00
35647;BME280;28680;45.642;13.756;2023-03-21T02:38:54;101458.56;;;9.09;100.00
35647;BME280;28680;45.642;13.756;2023-03-21T02:47:01;101452.25;;;8.97;100.00
35647;BME280;28680;45.642;13.756;2023-03-21T02:49:38;101453.00;;;9.00;100.00
35647;BME280;28680;45.642;13.756;2023-03-21T02:52:10;101448.06;;;8.95;100.00
35647;BME280;28680;45.642;13.756;2023-03-21T02:54:40;101444.53;;;8.96;100.00
35647;BME280;28680;45.642;13.756;2023-03-21T02:57:08;101447.69;;;8.87;100.00
35647;BME280;28680;45.642;13.756;2023-03-21T02:59:34;101446.00;;;8.86;100.00
35647;BME280;28680;45.642;13.756;2023-03-21T03:02:02;101447.03;;;8.83;100.00
35647;BME280;28680;45.642;13.756;2023-03-21T03:04:28;101447.78;;;8.85;100.00
35647;BME280;28680;45.642;13.756;2023-03-21T03:12:24;101438.25;;;8.98;100.00
35647;BME280;28680;45.642;13.756;2023-03-21T03:23:58;101430.38;;;8.84;100.00
35647;BME280;28680;45.642;13.756;2023-03-21T03:26:44;101431.97;;;8.87;100.00
35647;BME280;28680;45.642;13.756;2023-03-21T03:29:16;101426.81;;;8.85;100.00
35647;BME280;28680;45.642;13.756;2023-03-21T03:31:55;101422.25;;;9.03;100.00
35647;BME280;28680;45.642;13.756;2023-03-21T03:34:27;101418.88;;;9.01;100.00
35647;BME280;28680;45.642;13.756;2023-03-21T03:36:59;101425.06;;;9.00;100.00
35647;BME280;28680;45.642;13.756;2023-03-21T03:39:48;101424.38;;;9.11;100.00
35647;BME280;28680;45.642;13.756;2023-03-21T03:42:29;101416.84;;;9.21;100.00
35647;BME280;28680;45.642;13.756;2023-03-21T03:44:57;101411.94;;;9.14;100.00
35647;BME280;28680;45.642;13.756;2023-03-21T03:47:32;101416.91;;;9.05;100.00
35647;BME280;28680;45.642;13.756;2023-03-21T03:52:58;101414.66;;;9.13;100.00
35647;BME280;28680;45.642;13.756;2023-03-21T03:55:26;101420.47;;;9.04;100.00
35647;BME280;28680;45.642;13.756;2023-03-21T03:58:00;101410.19;;;9.01;100.00
35647;BME280;28680;45.642;13.756;2023-03-21T04:00:30;101409.53;;;9.11;100.00
35647;BME280;28680;45.642;13.756;2023-03-21T04:02:56;101414.56;;;9.14;100.00
35647;BME280;28680;45.642;13.756;2023-03-21T04:05:24;101404.19;;;9.13;100.00
35647;BME280;28680;45.642;13.756;2023-03-21T04:07:51;101401.69;;;9.11;100.00
35647;BME280;28680;45.642;13.756;2023-03-21T04:10:18;101408.03;;;9.07;100.00
35647;BME280;28680;45.642;13.756;2023-03-21T04:12:45;101403.16;;;9.01;100.00
35647;BME280;28680;45.642;13.756;2023-03-21T04:15:11;101405.59;;;9.04;100.00
35647;BME280;28680;45.642;13.756;2023-03-21T04:17:37;101412.63;;;8.89;100.00
35647;BME280;28680;45.642;13.756;2023-03-21T04:20:05;101408.69;;;8.82;100.00
35647;BME280;28680;45.642;13.756;2023-03-21T04:22:32;101415.78;;;8.80;100.00
35647;BME280;28680;45.642;13.756;2023-03-21T04:24:59;101407.28;;;8.76;100.00
35647;BME280;28680;45.642;13.756;2023-03-21T04:27:27;101418.47;;;8.78;100.00
35647;BME280;28680;45.642;13.756;2023-03-21T04:29:53;101416.81;;;8.77;100.00
35647;BME280;28680;45.642;13.756;2023-03-21T04:32:20;101416.28;;;8.87;100.00
35647;BME280;28680;45.642;13.756;2023-03-21T04:34:51;101424.00;;;8.88;100.00
35647;BME280;28680;45.642;13.756;2023-03-21T04:37:20;101426.81;;;8.85;100.00
35647;BME280;28680;45.642;13.756;2023-03-21T04:39:49;101429.34;;;8.87;100.00
35647;BME280;28680;45.642;13.756;2023-03-21T04:42:17;101426.09;;;8.83;100.00
35647;BME280;28680;45.642;13.756;2023-03-21T04:44:47;101423.63;;;8.80;100.00
35647;BME280;28680;45.642;13.756;2023-03-21T04:47:14;101434.03;;;8.82;100.00
35647;BME280;28680;45.642;13.756;2023-03-21T04:49:45;101435.81;;;8.81;100.00
35647;BME280;28680;45.642;13.756;2023-03-21T04:52:15;101435.50;;;8.86;100.00
35647;BME280;28680;45.642;13.756;2023-03-21T04:54:41;101431.13;;;8.86;100.00
35647;BME280;28680;45.642;13.756;2023-03-21T04:57:07;101438.88;;;8.88;100.00
35647;BME280;28680;45.642;13.756;2023-03-21T04:59:33;101437.09;;;8.88;100.00
35647;BME280;28680;45.642;13.756;2023-03-21T05:01:59;101431.69;;;8.91;100.00
35647;BME280;28680;45.642;13.756;2023-03-21T05:04:26;101438.50;;;8.94;100.00
35647;BME280;28680;45.642;13.756;2023-03-21T05:06:53;101436.84;;;8.93;100.00
35647;BME280;28680;45.642;13.756;2023-03-21T05:09:20;101444.13;;;9.02;100.00
35647;BME280;28680;45.642;13.756;2023-03-21T05:11:50;101449.94;;;8.93;100.00
35647;BME280;28680;45.642;13.756;2023-03-21T05:14:22;101445.72;;;8.90;100.00
35647;BME280;28680;45.642;13.756;2023-03-21T05:16:50;101450.09;;;8.90;100.00
35647;BME280;28680;45.642;13.756;2023-03-21T05:19:27;101454.88;;;8.83;100.00
35647;BME280;28680;45.642;13.756;2023-03-21T05:22:06;101456.28;;;8.89;100.00
35647;BME280;28680;45.642;13.756;2023-03-21T05:24:33;101462.63;;;8.85;100.00
35647;BME280;28680;45.642;13.756;2023-03-21T05:27:00;101464.31;;;8.86;100.00
35647;BME280;28680;45.642;13.756;2023-03-21T05:29:29;101466.09;;;8.85;100.00
35647;BME280;28680;45.642;13.756;2023-03-21T05:31:56;101478.16;;;8.88;100.00
35647;BME280;28680;45.642;13.756;2023-03-21T05:34:23;101477.78;;;8.94;100.00
35647;BME280;28680;45.642;13.756;2023-03-21T05:36:49;101475.00;;;8.97;100.00
35647;BME280;28680;45.642;13.756;2023-03-21T05:39:15;101480.06;;;9.00;100.00
35647;BME280;28680;45.642;13.756;2023-03-21T05:41:41;101484.06;;;9.06;100.00
35647;BME280;28680;45.642;13.756;2023-03-21T05:44:07;101485.56;;;9.10;100.00
35647;BME280;28680;45.642;13.756;2023-03-21T05:46:32;101488.28;;;9.08;100.00
35647;BME280;28680;45.642;13.756;2023-03-21T05:48:58;101490.59;;;9.13;100.00
35647;BME280;28680;45.642;13.756;2023-03-21T05:51:24;101494.75;;;9.17;100.00
35647;BME280;28680;45.642;13.756;2023-03-21T05:53:50;101499.69;;;9.22;100.00
35647;BME280;28680;45.642;13.756;2023-03-21T05:56:17;101496.69;;;9.28;100.00
35647;BME280;28680;45.642;13.756;2023-03-21T05:58:43;101494.75;;;9.31;100.00
35647;BME280;28680;45.642;13.756;2023-03-21T06:01:09;101497.34;;;9.31;100.00
35647;BME280;28680;45.642;13.756;2023-03-21T06:03:35;101502.34;;;9.36;100.00
35647;BME280;28680;45.642;13.756;2023-03-21T06:06:01;101497.94;;;9.51;100.00
35647;BME280;28680;45.642;13.756;2023-03-21T06:08:29;101500.34;;;9.54;100.00
35647;BME280;28680;45.642;13.756;2023-03-21T06:10:54;101505.41;;;9.57;100.00
35647;BME280;28680;45.642;13.756;2023-03-21T06:13:21;101498.56;;;9.54;100.00
35647;BME280;28680;45.642;13.756;2023-03-21T06:15:47;101510.56;;;9.59;100.00
35647;BME280;28680;45.642;13.756;2023-03-21T06:18:13;101516.56;;;9.61;100.00
35647;BME280;28680;45.642;13.756;2023-03-21T06:20:38;101512.88;;;9.63;100.00
35647;BME280;28680;45.642;13.756;2023-03-21T06:23:05;101509.78;;;9.71;100.00
35647;BME280;28680;45.642;13.756;2023-03-21T06:25:30;101511.66;;;9.69;100.00
35647;BME280;28680;45.642;13.756;2023-03-21T06:27:56;101514.84;;;9.74;100.00
35647;BME280;28680;45.642;13.756;2023-03-21T06:30:22;101514.16;;;9.85;100.00
35647;BME280;28680;45.642;13.756;2023-03-21T06:32:48;101521.84;;;9.88;100.00
35647;BME280;28680;45.642;13.756;2023-03-21T06:35:14;101520.53;;;9.95;100.00
35647;BME280;28680;45.642;13.756;2023-03-21T06:37:40;101516.09;;;10.10;100.00
35647;BME280;28680;45.642;13.756;2023-03-21T06:40:08;101514.91;;;10.28;100.00
35647;BME280;28680;45.642;13.756;2023-03-21T06:42:34;101513.28;;;10.40;100.00
35647;BME280;28680;45.642;13.756;2023-03-21T06:45:00;101505.25;;;10.56;100.00
35647;BME280;28680;45.642;13.756;2023-03-21T06:47:26;101496.25;;;10.73;100.00
35647;BME280;28680;45.642;13.756;2023-03-21T06:49:52;101488.59;;;10.83;100.00
35647;BME280;28680;45.642;13.756;2023-03-21T06:52:18;101486.94;;;10.82;100.00
35647;BME280;28680;45.642;13.756;2023-03-21T06:54:43;101479.66;;;10.72;100.00
35647;BME280;28680;45.642;13.756;2023-03-21T06:57:09;101484.09;;;10.72;100.00
35647;BME280;28680;45.642;13.756;2023-03-21T06:59:36;101483.84;;;10.75;100.00
35647;BME280;28680;45.642;13.756;2023-03-21T07:02:02;101480.84;;;10.81;100.00
35647;BME280;28680;45.642;13.756;2023-03-21T07:04:28;101480.72;;;10.83;100.00
35647;BME280;28680;45.642;13.756;2023-03-21T07:06:54;101476.13;;;10.99;100.00
35647;BME280;28680;45.642;13.756;2023-03-21T07:09:20;101477.81;;;11.00;100.00
35647;BME280;28680;45.642;13.756;2023-03-21T07:11:49;101465.38;;;11.15;100.00
35647;BME280;28680;45.642;13.756;2023-03-21T07:14:18;101473.50;;;11.25;100.00
35647;BME280;28680;45.642;13.756;2023-03-21T07:16:44;101469.25;;;11.35;100.00
35647;BME280;28680;45.642;13.756;2023-03-21T07:19:10;101474.22;;;11.27;100.00
35647;BME280;28680;45.642;13.756;2023-03-21T07:21:36;101467.06;;;11.29;100.00
35647;BME280;28680;45.642;13.756;2023-03-21T07:24:02;101468.00;;;11.41;100.00
35647;BME280;28680;45.642;13.756;2023-03-21T07:26:28;101461.88;;;11.53;100.00
35647;BME280;28680;45.642;13.756;2023-03-21T07:28:54;101462.34;;;11.71;100.00
35647;BME280;28680;45.642;13.756;2023-03-21T07:31:20;101465.88;;;11.96;100.00
35647;BME280;28680;45.642;13.756;2023-03-21T07:33:46;101469.97;;;12.24;100.00
35647;BME280;28680;45.642;13.756;2023-03-21T07:36:13;101467.88;;;12.40;100.00
35647;BME280;28680;45.642;13.756;2023-03-21T07:38:42;101465.75;;;12.57;100.00
35647;BME280;28680;45.642;13.756;2023-03-21T07:41:08;101466.50;;;12.70;100.00
35647;BME280;28680;45.642;13.756;2023-03-21T07:43:34;101460.56;;;13.02;100.00
35647;BME280;28680;45.642;13.756;2023-03-21T07:46:00;101457.47;;;13.19;100.00
35647;BME280;28680;45.642;13.756;2023-03-21T07:48:28;101462.31;;;13.48;100.00
35647;BME280;28680;45.642;13.756;2023-03-21T07:50:54;101460.00;;;13.66;100.00
35647;BME280;28680;45.642;13.756;2023-03-21T07:53:20;101459.94;;;13.89;100.00
35647;BME280;28680;45.642;13.756;2023-03-21T07:55:53;101455.03;;;13.95;100.00
35647;BME280;28680;45.642;13.756;2023-03-21T07:58:24;101462.34;;;14.24;100.00
35647;BME280;28680;45.642;13.756;2023-03-21T08:00:51;101463.53;;;14.52;100.00
35647;BME280;28680;45.642;13.756;2023-03-21T08:03:18;101463.75;;;14.60;100.00
35647;BME280;28680;45.642;13.756;2023-03-21T08:05:44;101456.41;;;14.64;100.00
35647;BME280;28680;45.642;13.756;2023-03-21T08:08:11;101461.47;;;14.56;100.00
35647;BME280;28680;45.642;13.756;2023-03-21T08:10:37;101462.59;;;14.74;100.00
35647;BME280;28680;45.642;13.756;2023-03-21T08:13:03;101457.59;;;15.02;100.00
35647;BME280;28680;45.642;13.756;2023-03-21T08:15:29;101458.31;;;15.04;100.00
35647;BME280;28680;45.642;13.756;2023-03-21T08:17:58;101448.06;;;15.11;100.00
35647;BME280;28680;45.642;13.756;2023-03-21T08:20:24;101451.91;;;15.37;100.00
35647;BME280;28680;45.642;13.756;2023-03-21T08:22:50;101449.88;;;15.51;100.00
35647;BME280;28680;45.642;13.756;2023-03-21T08:25:18;101451.56;;;15.62;100.00
35647;BME280;28680;45.642;13.756;2023-03-21T08:27:47;101445.44;;;15.61;100.00
35647;BME280;28680;45.642;13.756;2023-03-21T08:30:20;101440.06;;;15.82;100.00
35647;BME280;28680;45.642;13.756;2023-03-21T08:32:46;101439.66;;;15.87;100.00
35647;BME280;28680;45.642;13.756;2023-03-21T08:35:16;101443.63;;;15.62;100.00
35647;BME280;28680;45.642;13.756;2023-03-21T08:37:43;101447.56;;;15.27;100.00
35647;BME280;28680;45.642;13.756;2023-03-21T08:42:43;101439.59;;;15.67;100.00
35647;BME280;28680;45.642;13.756;2023-03-21T08:45:10;101433.81;;;16.03;100.00
35647;BME280;28680;45.642;13.756;2023-03-21T08:47:36;101434.63;;;16.42;100.00
35647;BME280;28680;45.642;13.756;2023-03-21T08:50:05;101434.38;;;16.45;100.00
35647;BME280;28680;45.642;13.756;2023-03-21T08:52:34;101426.38;;;16.55;100.00
35647;BME280;28680;45.642;13.756;2023-03-21T08:55:00;101426.06;;;16.77;100.00
35647;BME280;28680;45.642;13.756;2023-03-21T08:57:27;101427.44;;;16.91;100.00
35647;BME280;28680;45.642;13.756;2023-03-21T08:59:53;101429.81;;;16.94;100.00
35647;BME280;28680;45.642;13.756;2023-03-21T09:02:19;101431.69;;;17.12;100.00
35647;BME280;28680;45.642;13.756;2023-03-21T09:04:46;101427.47;;;17.19;100.00
35647;BME280;28680;45.642;13.756;2023-03-21T09:07:12;101428.13;;;17.31;100.00
35647;BME280;28680;45.642;13.756;2023-03-21T09:09:40;101432.63;;;17.48;100.00
35647;BME280;28680;45.642;13.756;2023-03-21T09:12:06;101428.03;;;17.50;100.00
35647;BME280;28680;45.642;13.756;2023-03-21T09:14:32;101428.66;;;17.62;100.00
35647;BME280;28680;45.642;13.756;2023-03-21T09:16:59;101421.44;;;17.54;100.00
35647;BME280;28680;45.642;13.756;2023-03-21T09:19:26;101420.34;;;17.93;100.00
35647;BME280;28680;45.642;13.756;2023-03-21T09:21:53;101424.69;;;17.94;100.00
35647;BME280;28680;45.642;13.756;2023-03-21T09:24:20;101434.09;;;17.88;100.00
35647;BME280;28680;45.642;13.756;2023-03-21T09:26:46;101431.81;;;18.11;100.00
35647;BME280;28680;45.642;13.756;2023-03-21T09:29:17;101428.53;;;18.18;100.00
35647;BME280;28680;45.642;13.756;2023-03-21T09:31:45;101428.59;;;18.26;100.00
35647;BME280;28680;45.642;13.756;2023-03-21T09:34:12;101425.13;;;18.51;100.00
35647;BME280;28680;45.642;13.756;2023-03-21T09:36:40;101426.19;;;18.59;100.00
35647;BME280;28680;45.642;13.756;2023-03-21T09:39:09;101417.97;;;18.70;100.00
35647;BME280;28680;45.642;13.756;2023-03-21T09:44:58;101427.97;;;19.02;100.00
35647;BME280;28680;45.642;13.756;2023-03-21T09:47:31;101425.94;;;19.39;100.00
35647;BME280;28680;45.642;13.756;2023-03-21T09:53:24;101421.72;;;19.62;100.00
35647;BME280;28680;45.642;13.756;2023-03-21T09:55:52;101419.06;;;19.71;100.00
35647;BME280;28680;45.642;13.756;2023-03-21T09:58:33;101416.94;;;20.07;100.00
35647;BME280;28680;45.642;13.756;2023-03-21T10:01:16;101410.28;;;20.11;100.00
35647;BME280;28680;45.642;13.756;2023-03-21T10:04:13;101415.13;;;20.32;100.00
35647;BME280;28680;45.642;13.756;2023-03-21T10:06:46;101414.44;;;20.38;100.00
35647;BME280;28680;45.642;13.756;2023-03-21T10:09:20;101413.41;;;20.56;100.00
35647;BME280;28680;45.642;13.756;2023-03-21T10:11:55;101412.75;;;20.78;100.00
35647;BME280;28680;45.642;13.756;2023-03-21T10:14:41;101410.25;;;21.16;100.00
35647;BME280;28680;45.642;13.756;2023-03-21T10:17:31;101403.09;;;21.17;100.00
35647;BME280;28680;45.642;13.756;2023-03-21T10:20:24;101407.84;;;21.38;100.00
35647;BME280;28680;45.642;13.756;2023-03-21T10:22:53;101399.91;;;21.84;100.00
35647;BME280;28680;45.642;13.756;2023-03-21T10:26:00;101398.59;;;21.80;100.00
35647;BME280;28680;45.642;13.756;2023-03-21T10:28:32;101386.94;;;21.96;100.00
35647;BME280;28680;45.642;13.756;2023-03-21T10:31:05;101384.78;;;22.14;100.00
35647;BME280;28680;45.642;13.756;2023-03-21T10:33:43;101373.13;;;22.30;100.00
35647;BME280;28680;45.642;13.756;2023-03-21T10:36:29;101376.19;;;22.57;100.00
35647;BME280;28680;45.642;13.756;2023-03-21T10:39:07;101378.03;;;22.56;100.00
35647;BME280;28680;45.642;13.756;2023-03-21T10:41:38;101377.88;;;22.73;100.00
35647;BME280;28680;45.642;13.756;2023-03-21T10:44:15;101379.16;;;22.77;100.00
35647;BME280;28680;45.642;13.756;2023-03-21T10:46:54;101374.25;;;22.95;100.00
35647;BME280;28680;45.642;13.756;2023-03-21T10:49:21;101373.03;;;22.98;100.00
35647;BME280;28680;45.642;13.756;2023-03-21T10:51:53;101377.22;;;23.01;100.00
35647;BME280;28680;45.642;13.756;2023-03-21T10:54:23;101370.69;;;23.03;100.00
35647;BME280;28680;45.642;13.756;2023-03-21T10:57:07;101371.69;;;22.57;100.00
35647;BME280;28680;45.642;13.756;2023-03-21T10:59:55;101366.78;;;22.46;100.00
35647;BME280;28680;45.642;13.756;2023-03-21T11:02:35;101363.84;;;22.86;100.00
35647;BME280;28680;45.642;13.756;2023-03-21T11:05:16;101362.94;;;23.30;100.00
35647;BME280;28680;45.642;13.756;2023-03-21T11:07:44;101360.00;;;23.61;100.00
35647;BME280;28680;45.642;13.756;2023-03-21T11:10:26;101356.28;;;23.62;100.00
35647;BME280;28680;45.642;13.756;2023-03-21T11:12:56;101349.84;;;23.78;100.00
35647;BME280;28680;45.642;13.756;2023-03-21T11:15:39;101350.59;;;24.50;100.00
35647;BME280;28680;45.642;13.756;2023-03-21T11:18:19;101348.59;;;24.30;100.00
35647;BME280;28680;45.642;13.756;2023-03-21T11:21:04;101337.59;;;24.19;100.00
35647;BME280;28680;45.642;13.756;2023-03-21T11:23:36;101344.94;;;24.38;100.00
35647;BME280;28680;45.642;13.756;2023-03-21T11:26:28;101340.97;;;24.56;100.00
35647;BME280;28680;45.642;13.756;2023-03-21T11:28:55;101334.81;;;24.68;100.00
35647;BME280;28680;45.642;13.756;2023-03-21T11:31:22;101336.97;;;24.86;100.00
35647;BME280;28680;45.642;13.756;2023-03-21T11:34:06;101328.19;;;25.13;100.00
35647;BME280;28680;45.642;13.756;2023-03-21T11:36:36;101319.94;;;25.14;97.72
35647;BME280;28680;45.642;13.756;2023-03-21T11:39:29;101308.84;;;25.24;86.41
35647;BME280;28680;45.642;13.756;2023-03-21T11:41:55;101311.75;;;25.36;89.40
35647;BME280;28680;45.642;13.756;2023-03-21T11:44:34;101305.13;;;25.32;86.84
35647;BME280;28680;45.642;13.756;2023-03-21T11:47:09;101303.69;;;25.36;87.58
35647;BME280;28680;45.642;13.756;2023-03-21T11:49:35;101295.41;;;25.57;84.11
35647;BME280;28680;45.642;13.756;2023-03-21T11:52:44;101289.44;;;25.55;85.59
35647;BME280;28680;45.642;13.756;2023-03-21T12:00:35;101293.78;;;26.03;89.32
35647;BME280;28680;45.642;13.756;2023-03-21T12:06:04;101292.84;;;26.42;85.01
35647;BME280;28680;45.642;13.756;2023-03-21T12:26:13;101267.31;;;26.00;85.25
35647;BME280;28680;45.642;13.756;2023-03-21T12:32:12;101261.31;;;26.70;74.67
35647;BME280;28680;45.642;13.756;2023-03-21T12:38:13;101253.56;;;27.25;71.68
35647;BME280;28680;45.642;13.756;2023-03-21T12:41:00;101259.34;;;26.45;71.87
35647;BME280;28680;45.642;13.756;2023-03-21T12:46:50;101252.09;;;26.39;80.77
35647;BME280;28680;45.642;13.756;2023-03-21T12:50:02;101242.31;;;26.96;82.94
35647;BME280;28680;45.642;13.756;2023-03-21T12:52:44;101243.19;;;26.38;87.99
35647;BME280;28680;45.642;13.756;2023-03-21T12:55:28;101247.22;;;27.06;82.68
35647;BME280;28680;45.642;13.756;2023-03-21T12:58:13;101237.38;;;27.25;79.79
35647;BME280;28680;45.642;13.756;2023-03-21T13:00:47;101236.00;;;27.41;79.25
35647;BME280;28680;45.642;13.756;2023-03-21T13:03:31;101228.16;;;27.39;77.67
35647;BME280;28680;45.642;13.756;2023-03-21T13:06:05;101241.16;;;27.17;76.13
35647;BME280;28680;45.642;13.756;2023-03-21T13:08:51;101239.03;;;26.94;77.22
35647;BME280;28680;45.642;13.756;2023-03-21T13:11:26;101237.22;;;26.88;78.93
35647;BME280;28680;45.642;13.756;2023-03-21T13:14:21;101238.94;;;27.08;82.75
35647;BME280;28680;45.642;13.756;2023-03-21T13:17:05;101239.06;;;27.26;81.27
35647;BME280;28680;45.642;13.756;2023-03-21T13:22:40;101229.41;;;27.37;80.51
35647;BME280;28680;45.642;13.756;2023-03-21T13:25:27;101232.50;;;27.09;87.80
35647;BME280;28680;45.642;13.756;2023-03-21T13:28:03;101229.06;;;26.95;87.76
35647;BME280;28680;45.642;13.756;2023-03-21T13:30:30;101223.91;;;26.93;84.65
35647;BME280;28680;45.642;13.756;2023-03-21T13:33:10;101221.97;;;27.07;88.04
35647;BME280;28680;45.642;13.756;2023-03-21T13:35:40;101228.03;;;26.96;87.83
35647;BME280;28680;45.642;13.756;2023-03-21T13:38:25;101214.34;;;26.97;88.27
35647;BME280;28680;45.642;13.756;2023-03-21T13:41:10;101210.22;;;27.27;87.19
35647;BME280;28680;45.642;13.756;2023-03-21T13:49:01;101200.97;;;27.66;82.86
35647;BME280;28680;45.642;13.756;2023-03-21T13:51:42;101200.97;;;27.66;80.54
35647;BME280;28680;45.642;13.756;2023-03-21T13:54:16;101198.13;;;27.79;80.78
35647;BME280;28680;45.642;13.756;2023-03-21T14:02:28;101190.84;;;27.80;79.13
35647;BME280;28680;45.642;13.756;2023-03-21T14:05:05;101184.09;;;27.96;77.87
35647;BME280;28680;45.642;13.756;2023-03-21T14:07:40;101182.50;;;28.07;76.14
35647;BME280;28680;45.642;13.756;2023-03-21T14:10:28;101170.28;;;28.23;74.37
35647;BME280;28680;45.642;13.756;2023-03-21T14:12:56;101165.28;;;28.08;74.03
35647;BME280;28680;45.642;13.756;2023-03-21T14:15:38;101163.72;;;28.00;75.39
35647;BME280;28680;45.642;13.756;2023-03-21T14:18:06;101169.31;;;28.17;72.74
35647;BME280;28680;45.642;13.756;2023-03-21T14:20:35;101164.59;;;28.12;72.49
35647;BME280;28680;45.642;13.756;2023-03-21T14:23:06;101157.09;;;28.14;73.20
35647;BME280;28680;45.642;13.756;2023-03-21T14:25:36;101150.88;;;28.14;72.90
35647;BME280;28680;45.642;13.756;2023-03-21T14:28:07;101157.22;;;28.19;73.25
35647;BME280;28680;45.642;13.756;2023-03-21T14:30:36;101149.84;;;27.96;70.68
35647;BME280;28680;45.642;13.756;2023-03-21T14:33:26;101152.38;;;28.10;72.14